createdAt,value
2019-03-01T00:00:00.868Z,8.9
2019-03-01T00:10:00.567Z,8.8
2019-03-01T00:20:00.457Z,8.8
2019-03-01T00:30:00.628Z,8.8
2019-03-01T00:40:00.503Z,8.9
2019-03-01T00:50:00.458Z,8.9
2019-03-01T01:00:00.710Z,8.6
2019-03-01T01:10:00.510Z,8.4
2019-03-01T01:20:00.563Z,8.4
2019-03-01T01:30:00.736Z,8.4
2019-03-01T01:40:00.607Z,8.4
2019-03-01T01:50:00.490Z,8.4
2019-03-01T02:00:00.654Z,8.4
2019-03-01T02:10:00.366Z,8.4
2019-03-01T02:20:00.482Z,8.4
2019-03-01T02:30:00.744Z,8.3
2019-03-01T02:40:00.485Z,8.3
2019-03-01T02:50:00.501Z,8.4
2019-03-01T03:00:00.701Z,8.4
2019-03-01T03:10:00.560Z,8.3
2019-03-01T03:20:00.572Z,8
2019-03-01T03:30:00.767Z,8
2019-03-01T03:40:00.514Z,8.1
2019-03-01T03:50:00.566Z,8.1
2019-03-01T04:00:00.931Z,8.3
2019-03-01T04:10:00.479Z,8.4
2019-03-01T04:20:00.549Z,8.5
2019-03-01T04:30:00.691Z,8.3
2019-03-01T04:40:00.529Z,8.1
2019-03-01T04:50:00.537Z,8
2019-03-01T05:00:00.791Z,8
2019-03-01T05:10:00.549Z,7.7
2019-03-01T05:20:00.550Z,7.5
2019-03-01T05:30:00.688Z,7.4
2019-03-01T05:40:00.603Z,7.2
2019-03-01T05:50:00.563Z,7.2
2019-03-01T06:00:00.735Z,7.2
2019-03-01T06:10:00.685Z,7.4
2019-03-01T06:20:00.755Z,7.5
2019-03-01T06:30:01.044Z,7.6
2019-03-01T06:40:00.661Z,7.6
2019-03-01T06:50:00.635Z,7.6
2019-03-01T07:00:00.857Z,7.7
2019-03-01T07:10:00.643Z,8.1
2019-03-01T07:20:00.644Z,7.9
2019-03-01T07:30:00.810Z,8.3
2019-03-01T07:40:00.710Z,8.5
2019-03-01T07:50:00.636Z,8.8
2019-03-01T08:00:01.097Z,9.3
2019-03-01T08:10:00.629Z,8.8
2019-03-01T08:20:00.664Z,8.8
2019-03-01T08:30:00.819Z,8.9
2019-03-01T08:40:00.649Z,9.1
2019-03-01T08:50:00.653Z,9.5
2019-03-01T09:00:00.735Z,9.6
2019-03-01T09:10:00.694Z,11
2019-03-01T09:20:01.166Z,12
2019-03-01T09:30:03.452Z,12.9
2019-03-01T09:40:05.355Z,13
2019-03-01T09:50:01.184Z,12
2019-03-01T10:00:00.746Z,11.6
2019-03-01T10:10:00.623Z,10
2019-03-01T10:20:00.783Z,9
2019-03-01T10:30:00.658Z,9
2019-03-01T10:40:00.670Z,8.3
2019-03-01T10:50:00.691Z,8.4
2019-03-01T11:00:00.830Z,9.1
2019-03-01T11:10:00.783Z,9.1
2019-03-01T11:20:00.621Z,9.6
2019-03-01T11:30:00.861Z,10.6
2019-03-01T11:40:00.709Z,11.4
2019-03-01T11:50:00.613Z,11.4
2019-03-01T12:00:00.837Z,12
2019-03-01T12:10:00.640Z,12.4
2019-03-01T12:20:00.683Z,11.5
2019-03-01T12:30:00.873Z,10.1
2019-03-01T12:40:00.591Z,8.8
2019-03-01T12:50:00.689Z,8.6
2019-03-01T13:00:00.868Z,8.1
2019-03-01T13:10:02.725Z,7.6
2019-03-01T13:20:01.012Z,7.2
2019-03-01T13:30:00.759Z,7.2
2019-03-01T13:40:00.638Z,7.2
2019-03-01T13:50:05.372Z,7
2019-03-01T14:00:00.676Z,6.7
2019-03-01T14:10:00.934Z,6.4
2019-03-01T14:20:00.587Z,5.9
2019-03-01T14:30:00.612Z,5.7
2019-03-01T14:40:00.596Z,5.6
2019-03-01T14:50:00.663Z,5.5
2019-03-01T15:00:00.793Z,5.6
2019-03-01T15:10:00.653Z,6.5
2019-03-01T15:20:00.638Z,6.9
2019-03-01T15:30:00.775Z,6.5
2019-03-01T15:40:00.669Z,6.2
2019-03-01T15:50:00.525Z,6.2
2019-03-01T16:00:00.927Z,6
2019-03-01T16:10:00.997Z,5.5
2019-03-01T16:20:00.596Z,5.1
2019-03-01T16:30:01.453Z,4.9
2019-03-01T16:40:01.429Z,4.7
2019-03-01T16:50:02.678Z,4.5
2019-03-01T17:00:00.950Z,4.5
2019-03-01T17:10:00.658Z,4.4
2019-03-01T17:20:02.250Z,4.2
2019-03-01T17:30:00.666Z,4.2
2019-03-01T17:40:00.560Z,4.2
2019-03-01T17:50:00.530Z,4.2
2019-03-01T18:00:00.597Z,4.2
2019-03-01T18:10:00.582Z,4.4
2019-03-01T18:20:01.510Z,4.4
2019-03-01T18:30:01.177Z,4.4
2019-03-01T18:40:00.622Z,4.4
2019-03-01T18:50:00.538Z,4.4
2019-03-01T19:00:01.099Z,4.4
2019-03-01T19:10:00.596Z,4.2
2019-03-01T19:20:01.870Z,4.2
2019-03-01T19:30:00.650Z,4.2
2019-03-01T19:40:00.675Z,4.4
2019-03-01T19:50:00.663Z,4.2
2019-03-01T20:00:00.779Z,4.2
2019-03-01T20:10:00.567Z,4.2
2019-03-01T20:20:00.606Z,4.2
2019-03-01T20:30:00.654Z,4.2
2019-03-01T20:40:00.565Z,4.2
2019-03-01T20:50:00.601Z,4.2
2019-03-01T21:00:01.780Z,4.2
2019-03-01T21:10:00.546Z,4.2
2019-03-01T21:20:00.336Z,4.2
2019-03-01T21:30:00.665Z,4.1
2019-03-01T21:40:00.666Z,4.1
2019-03-01T21:50:03.845Z,4.1
2019-03-01T22:00:00.718Z,4.1
2019-03-01T22:10:00.797Z,4.1
2019-03-01T22:20:00.561Z,4.1
2019-03-01T22:30:00.717Z,4.1
2019-03-01T22:40:00.561Z,4.2
2019-03-01T22:50:03.945Z,4.2
2019-03-01T23:00:00.752Z,4.2
2019-03-01T23:10:00.538Z,4.1
2019-03-01T23:20:00.516Z,4.1
2019-03-01T23:30:00.729Z,4.2
2019-03-01T23:40:00.896Z,4.2
2019-03-01T23:50:00.744Z,4.2
